sensor_id;sensor_type;location;lat;lon;timestamp;temperature;humidity
15083;DHT22;7640;53.116;6.878;2022-08-19T00:01:55;17.20;99.90
15083;DHT22;7640;53.116;6.878;2022-08-19T00:04:29;17.20;99.90
15083;DHT22;7640;53.116;6.878;2022-08-19T00:06:59;17.10;99.90
15083;DHT22;7640;53.116;6.878;2022-08-19T00:09:28;17.20;99.90
15083;DHT22;7640;53.116;6.878;2022-08-19T00:11:57;17.20;99.90
15083;DHT22;7640;53.116;6.878;2022-08-19T00:14:28;17.10;99.90
15083;DHT22;7640;53.116;6.878;2022-08-19T00:16:58;17.00;99.90
15083;DHT22;7640;53.116;6.878;2022-08-19T00:19:26;17.00;99.90
15083;DHT22;7640;53.116;6.878;2022-08-19T00:21:54;17.10;99.90
15083;DHT22;7640;53.116;6.878;2022-08-19T00:24:23;17.00;99.90
15083;DHT22;7640;53.116;6.878;2022-08-19T00:26:51;17.00;99.90
15083;DHT22;7640;53.116;6.878;2022-08-19T00:29:20;17.00;99.90
15083;DHT22;7640;53.116;6.878;2022-08-19T00:31:51;17.00;99.90
15083;DHT22;7640;53.116;6.878;2022-08-19T00:34:21;17.00;99.90
15083;DHT22;7640;53.116;6.878;2022-08-19T00:36:50;17.00;99.90
15083;DHT22;7640;53.116;6.878;2022-08-19T00:39:18;17.00;99.90
15083;DHT22;7640;53.116;6.878;2022-08-19T00:41:47;17.00;99.90
15083;DHT22;7640;53.116;6.878;2022-08-19T00:44:19;16.90;99.90
15083;DHT22;7640;53.116;6.878;2022-08-19T00:46:56;16.90;99.90
15083;DHT22;7640;53.116;6.878;2022-08-19T00:49:30;16.90;99.90
15083;DHT22;7640;53.116;6.878;2022-08-19T00:52:03;16.90;99.90
15083;DHT22;7640;53.116;6.878;2022-08-19T00:54:33;16.80;99.90
15083;DHT22;7640;53.116;6.878;2022-08-19T00:57:06;16.80;99.90
15083;DHT22;7640;53.116;6.878;2022-08-19T00:59:40;16.80;99.90
15083;DHT22;7640;53.116;6.878;2022-08-19T01:02:30;16.70;99.90
15083;DHT22;7640;53.116;6.878;2022-08-19T01:05:02;16.70;99.90
15083;DHT22;7640;53.116;6.878;2022-08-19T01:07:33;16.70;99.90
15083;DHT22;7640;53.116;6.878;2022-08-19T01:10:06;16.70;99.90
15083;DHT22;7640;53.116;6.878;2022-08-19T01:12:37;16.60;99.90
15083;DHT22;7640;53.116;6.878;2022-08-19T01:15:08;16.60;99.90
15083;DHT22;7640;53.116;6.878;2022-08-19T01:17:40;16.60;99.90
15083;DHT22;7640;53.116;6.878;2022-08-19T01:20:11;16.60;99.90
15083;DHT22;7640;53.116;6.878;2022-08-19T01:22:45;16.50;99.90
15083;DHT22;7640;53.116;6.878;2022-08-19T01:25:18;16.50;99.90
15083;DHT22;7640;53.116;6.878;2022-08-19T01:27:51;16.50;99.90
15083;DHT22;7640;53.116;6.878;2022-08-19T01:30:24;16.50;99.90
15083;DHT22;7640;53.116;6.878;2022-08-19T01:32:54;16.50;99.90
15083;DHT22;7640;53.116;6.878;2022-08-19T01:35:25;16.50;99.90
15083;DHT22;7640;53.116;6.878;2022-08-19T01:37:58;16.40;99.90
15083;DHT22;7640;53.116;6.878;2022-08-19T01:40:30;16.40;99.90
15083;DHT22;7640;53.116;6.878;2022-08-19T01:43:00;16.40;99.90
15083;DHT22;7640;53.116;6.878;2022-08-19T01:45:31;16.40;99.90
15083;DHT22;7640;53.116;6.878;2022-08-19T01:48:02;16.40;99.90
15083;DHT22;7640;53.116;6.878;2022-08-19T01:50:33;16.40;99.90
15083;DHT22;7640;53.116;6.878;2022-08-19T01:53:06;16.40;99.90
15083;DHT22;7640;53.116;6.878;2022-08-19T01:55:40;16.40;99.90
15083;DHT22;7640;53.116;6.878;2022-08-19T01:58:13;16.40;99.90
15083;DHT22;7640;53.116;6.878;2022-08-19T02:00:44;16.30;99.90
15083;DHT22;7640;53.116;6.878;2022-08-19T02:03:13;16.30;99.90
15083;DHT22;7640;53.116;6.878;2022-08-19T02:05:41;16.30;99.90
15083;DHT22;7640;53.116;6.878;2022-08-19T02:08:12;16.30;99.90
15083;DHT22;7640;53.116;6.878;2022-08-19T02:10:42;16.30;99.90
15083;DHT22;7640;53.116;6.878;2022-08-19T02:13:13;16.30;99.90
15083;DHT22;7640;53.116;6.878;2022-08-19T02:15:46;16.30;99.90
15083;DHT22;7640;53.116;6.878;2022-08-19T02:18:15;16.20;99.90
15083;DHT22;7640;53.116;6.878;2022-08-19T02:20:53;16.20;99.90
15083;DHT22;7640;53.116;6.878;2022-08-19T02:23:23;16.20;99.90
15083;DHT22;7640;53.116;6.878;2022-08-19T02:25:51;16.20;99.90
15083;DHT22;7640;53.116;6.878;2022-08-19T02:28:19;16.20;99.90
15083;DHT22;7640;53.116;6.878;2022-08-19T02:30:48;16.20;99.90
15083;DHT22;7640;53.116;6.878;2022-08-19T02:33:16;16.20;99.90
15083;DHT22;7640;53.116;6.878;2022-08-19T02:35:45;16.20;99.90
15083;DHT22;7640;53.116;6.878;2022-08-19T02:38:14;16.20;99.90
15083;DHT22;7640;53.116;6.878;2022-08-19T02:40:57;16.60;99.90
15083;DHT22;7640;53.116;6.878;2022-08-19T02:43:28;16.20;99.90
15083;DHT22;7640;53.116;6.878;2022-08-19T02:46:00;16.20;99.90
15083;DHT22;7640;53.116;6.878;2022-08-19T02:48:29;16.20;99.90
15083;DHT22;7640;53.116;6.878;2022-08-19T02:50:58;16.20;99.90
15083;DHT22;7640;53.116;6.878;2022-08-19T02:53:27;16.20;99.90
15083;DHT22;7640;53.116;6.878;2022-08-19T02:55:57;16.20;99.90
15083;DHT22;7640;53.116;6.878;2022-08-19T02:58:25;16.20;99.90
15083;DHT22;7640;53.116;6.878;2022-08-19T03:00:56;16.20;99.90
15083;DHT22;7640;53.116;6.878;2022-08-19T03:03:25;16.20;99.90
15083;DHT22;7640;53.116;6.878;2022-08-19T03:06:04;16.20;99.90
15083;DHT22;7640;53.116;6.878;2022-08-19T03:08:34;16.20;99.90
15083;DHT22;7640;53.116;6.878;2022-08-19T03:11:04;16.20;99.90
15083;DHT22;7640;53.116;6.878;2022-08-19T03:13:32;16.20;99.90
15083;DHT22;7640;53.116;6.878;2022-08-19T03:16:04;16.20;99.90
15083;DHT22;7640;53.116;6.878;2022-08-19T03:18:33;16.20;99.90
15083;DHT22;7640;53.116;6.878;2022-08-19T03:21:01;16.20;99.90
15083;DHT22;7640;53.116;6.878;2022-08-19T03:23:29;15.80;99.90
15083;DHT22;7640;53.116;6.878;2022-08-19T03:25:57;16.20;99.90
15083;DHT22;7640;53.116;6.878;2022-08-19T03:28:44;16.20;99.90
15083;DHT22;7640;53.116;6.878;2022-08-19T03:31:24;16.10;99.90
15083;DHT22;7640;53.116;6.878;2022-08-19T03:34:15;16.10;99.90
15083;DHT22;7640;53.116;6.878;2022-08-19T03:36:45;16.10;99.90
15083;DHT22;7640;53.116;6.878;2022-08-19T03:39:14;16.10;99.90
15083;DHT22;7640;53.116;6.878;2022-08-19T03:41:46;16.10;99.90
15083;DHT22;7640;53.116;6.878;2022-08-19T03:44:37;16.10;99.90
15083;DHT22;7640;53.116;6.878;2022-08-19T03:47:06;16.10;99.90
15083;DHT22;7640;53.116;6.878;2022-08-19T03:49:34;16.10;99.90
15083;DHT22;7640;53.116;6.878;2022-08-19T03:52:04;16.10;99.90
15083;DHT22;7640;53.116;6.878;2022-08-19T03:54:34;16.00;99.90
15083;DHT22;7640;53.116;6.878;2022-08-19T03:57:04;16.00;99.90
15083;DHT22;7640;53.116;6.878;2022-08-19T03:59:35;16.00;99.90
15083;DHT22;7640;53.116;6.878;2022-08-19T04:02:08;16.00;99.90
15083;DHT22;7640;53.116;6.878;2022-08-19T04:04:38;16.00;99.90
15083;DHT22;7640;53.116;6.878;2022-08-19T04:07:10;15.90;99.90
15083;DHT22;7640;53.116;6.878;2022-08-19T04:09:42;15.90;99.90
15083;DHT22;7640;53.116;6.878;2022-08-19T04:12:10;15.90;99.90
15083;DHT22;7640;53.116;6.878;2022-08-19T04:14:40;15.90;99.90
15083;DHT22;7640;53.116;6.878;2022-08-19T04:17:09;15.80;99.90
15083;DHT22;7640;53.116;6.878;2022-08-19T04:19:38;15.80;99.90
15083;DHT22;7640;53.116;6.878;2022-08-19T04:22:06;15.80;99.90
15083;DHT22;7640;53.116;6.878;2022-08-19T04:24:34;15.80;99.90
15083;DHT22;7640;53.116;6.878;2022-08-19T04:27:03;15.80;99.90
15083;DHT22;7640;53.116;6.878;2022-08-19T04:29:33;15.70;99.90
15083;DHT22;7640;53.116;6.878;2022-08-19T04:32:03;15.70;99.90
15083;DHT22;7640;53.116;6.878;2022-08-19T04:34:36;15.70;99.90
15083;DHT22;7640;53.116;6.878;2022-08-19T04:37:25;15.70;99.90
15083;DHT22;7640;53.116;6.878;2022-08-19T04:40:03;15.70;99.90
15083;DHT22;7640;53.116;6.878;2022-08-19T04:42:51;15.70;99.90
15083;DHT22;7640;53.116;6.878;2022-08-19T04:45:20;15.60;99.90
15083;DHT22;7640;53.116;6.878;2022-08-19T04:47:55;15.60;99.90
15083;DHT22;7640;53.116;6.878;2022-08-19T04:50:43;15.70;99.90
15083;DHT22;7640;53.116;6.878;2022-08-19T04:53:12;15.60;99.90
15083;DHT22;7640;53.116;6.878;2022-08-19T04:55:41;15.60;99.90
15083;DHT22;7640;53.116;6.878;2022-08-19T04:58:10;15.70;99.90
15083;DHT22;7640;53.116;6.878;2022-08-19T05:00:38;15.70;99.90
15083;DHT22;7640;53.116;6.878;2022-08-19T05:03:08;15.70;99.90
15083;DHT22;7640;53.116;6.878;2022-08-19T05:05:39;15.70;99.90
15083;DHT22;7640;53.116;6.878;2022-08-19T05:08:12;15.70;99.90
15083;DHT22;7640;53.116;6.878;2022-08-19T05:10:41;15.70;99.90
15083;DHT22;7640;53.116;6.878;2022-08-19T05:13:09;15.70;99.90
15083;DHT22;7640;53.116;6.878;2022-08-19T05:15:37;15.90;99.90
15083;DHT22;7640;53.116;6.878;2022-08-19T05:18:05;15.70;99.90
15083;DHT22;7640;53.116;6.878;2022-08-19T05:20:52;15.70;99.90
15083;DHT22;7640;53.116;6.878;2022-08-19T05:23:38;15.70;99.90
15083;DHT22;7640;53.116;6.878;2022-08-19T05:26:07;15.80;99.90
15083;DHT22;7640;53.116;6.878;2022-08-19T05:28:37;15.80;99.90
15083;DHT22;7640;53.116;6.878;2022-08-19T05:31:05;15.90;99.90
15083;DHT22;7640;53.116;6.878;2022-08-19T05:33:33;15.90;99.90
15083;DHT22;7640;53.116;6.878;2022-08-19T05:36:03;16.00;99.90
15083;DHT22;7640;53.116;6.878;2022-08-19T05:38:32;16.00;99.90
15083;DHT22;7640;53.116;6.878;2022-08-19T05:41:00;16.10;99.90
15083;DHT22;7640;53.116;6.878;2022-08-19T05:43:29;16.10;99.90
15083;DHT22;7640;53.116;6.878;2022-08-19T05:45:57;16.20;99.90
15083;DHT22;7640;53.116;6.878;2022-08-19T05:48:26;16.30;99.90
15083;DHT22;7640;53.116;6.878;2022-08-19T05:50:54;16.40;99.90
15083;DHT22;7640;53.116;6.878;2022-08-19T05:53:25;16.50;99.90
15083;DHT22;7640;53.116;6.878;2022-08-19T05:55:53;16.60;99.90
15083;DHT22;7640;53.116;6.878;2022-08-19T05:58:23;16.70;99.90
15083;DHT22;7640;53.116;6.878;2022-08-19T06:00:53;16.80;99.90
15083;DHT22;7640;53.116;6.878;2022-08-19T06:03:22;16.90;99.90
15083;DHT22;7640;53.116;6.878;2022-08-19T06:05:50;17.00;99.90
15083;DHT22;7640;53.116;6.878;2022-08-19T06:08:21;17.00;99.90
15083;DHT22;7640;53.116;6.878;2022-08-19T06:11:15;17.20;99.90
15083;DHT22;7640;53.116;6.878;2022-08-19T06:13:46;17.30;99.90
15083;DHT22;7640;53.116;6.878;2022-08-19T06:16:26;17.40;99.90
15083;DHT22;7640;53.116;6.878;2022-08-19T06:18:59;17.50;99.90
15083;DHT22;7640;53.116;6.878;2022-08-19T06:21:30;17.60;99.90
15083;DHT22;7640;53.116;6.878;2022-08-19T06:23:59;17.70;99.90
15083;DHT22;7640;53.116;6.878;2022-08-19T06:26:29;17.80;99.90
15083;DHT22;7640;53.116;6.878;2022-08-19T06:28:57;18.00;99.90
15083;DHT22;7640;53.116;6.878;2022-08-19T06:31:28;18.10;99.90
15083;DHT22;7640;53.116;6.878;2022-08-19T06:33:58;18.20;99.90
15083;DHT22;7640;53.116;6.878;2022-08-19T06:36:31;18.40;99.90
15083;DHT22;7640;53.116;6.878;2022-08-19T06:39:01;18.50;99.90
15083;DHT22;7640;53.116;6.878;2022-08-19T06:41:34;18.60;99.90
15083;DHT22;7640;53.116;6.878;2022-08-19T06:44:13;18.70;99.90
15083;DHT22;7640;53.116;6.878;2022-08-19T06:46:46;18.80;99.90
15083;DHT22;7640;53.116;6.878;2022-08-19T06:49:21;18.90;99.90
15083;DHT22;7640;53.116;6.878;2022-08-19T06:51:50;19.00;99.90
15083;DHT22;7640;53.116;6.878;2022-08-19T06:54:20;19.10;99.90
15083;DHT22;7640;53.116;6.878;2022-08-19T06:56:59;19.20;99.90
15083;DHT22;7640;53.116;6.878;2022-08-19T06:59:29;19.30;99.90
15083;DHT22;7640;53.116;6.878;2022-08-19T07:02:02;19.40;99.90
15083;DHT22;7640;53.116;6.878;2022-08-19T07:04:36;19.50;99.90
15083;DHT22;7640;53.116;6.878;2022-08-19T07:07:09;19.60;99.90
15083;DHT22;7640;53.116;6.878;2022-08-19T07:09:47;19.70;99.90
15083;DHT22;7640;53.116;6.878;2022-08-19T07:12:31;19.90;99.90
15083;DHT22;7640;53.116;6.878;2022-08-19T07:15:01;19.90;99.90
15083;DHT22;7640;53.116;6.878;2022-08-19T07:17:31;20.10;99.90
15083;DHT22;7640;53.116;6.878;2022-08-19T07:20:01;20.20;99.90
15083;DHT22;7640;53.116;6.878;2022-08-19T07:22:35;20.30;99.90
15083;DHT22;7640;53.116;6.878;2022-08-19T07:25:04;20.40;99.90
15083;DHT22;7640;53.116;6.878;2022-08-19T07:27:35;20.50;99.90
15083;DHT22;7640;53.116;6.878;2022-08-19T07:30:06;20.60;99.90
15083;DHT22;7640;53.116;6.878;2022-08-19T07:32:38;20.70;99.90
15083;DHT22;7640;53.116;6.878;2022-08-19T07:35:07;20.80;99.90
15083;DHT22;7640;53.116;6.878;2022-08-19T07:37:36;21.00;99.90
15083;DHT22;7640;53.116;6.878;2022-08-19T07:40:07;21.10;99.90
15083;DHT22;7640;53.116;6.878;2022-08-19T07:42:38;21.20;99.90
15083;DHT22;7640;53.116;6.878;2022-08-19T07:45:07;21.40;99.90
15083;DHT22;7640;53.116;6.878;2022-08-19T07:47:36;21.50;99.90
15083;DHT22;7640;53.116;6.878;2022-08-19T07:50:24;21.60;99.90
15083;DHT22;7640;53.116;6.878;2022-08-19T07:52:52;21.80;99.90
15083;DHT22;7640;53.116;6.878;2022-08-19T07:55:23;21.90;99.90
15083;DHT22;7640;53.116;6.878;2022-08-19T07:58:10;22.00;99.90
15083;DHT22;7640;53.116;6.878;2022-08-19T08:00:39;22.10;99.90
15083;DHT22;7640;53.116;6.878;2022-08-19T08:03:07;22.20;99.90
15083;DHT22;7640;53.116;6.878;2022-08-19T08:05:36;22.30;99.90
15083;DHT22;7640;53.116;6.878;2022-08-19T08:08:22;22.50;99.90
15083;DHT22;7640;53.116;6.878;2022-08-19T08:11:13;22.60;99.90
15083;DHT22;7640;53.116;6.878;2022-08-19T08:13:47;22.70;99.90
15083;DHT22;7640;53.116;6.878;2022-08-19T08:16:31;22.80;99.90
15083;DHT22;7640;53.116;6.878;2022-08-19T08:19:06;23.00;99.90
15083;DHT22;7640;53.116;6.878;2022-08-19T08:21:51;23.10;99.90
15083;DHT22;7640;53.116;6.878;2022-08-19T08:24:20;23.20;99.90
15083;DHT22;7640;53.116;6.878;2022-08-19T08:26:55;23.30;99.90
15083;DHT22;7640;53.116;6.878;2022-08-19T08:29:27;23.40;99.90
15083;DHT22;7640;53.116;6.878;2022-08-19T08:32:01;23.40;99.90
15083;DHT22;7640;53.116;6.878;2022-08-19T08:34:39;23.50;99.90
15083;DHT22;7640;53.116;6.878;2022-08-19T08:37:08;23.60;99.90
15083;DHT22;7640;53.116;6.878;2022-08-19T08:39:36;23.70;99.90
15083;DHT22;7640;53.116;6.878;2022-08-19T08:42:08;23.90;99.90
15083;DHT22;7640;53.116;6.878;2022-08-19T08:44:49;24.00;99.90
15083;DHT22;7640;53.116;6.878;2022-08-19T08:47:31;24.00;99.90
15083;DHT22;7640;53.116;6.878;2022-08-19T08:50:06;24.10;99.90
15083;DHT22;7640;53.116;6.878;2022-08-19T08:52:43;24.20;99.90
15083;DHT22;7640;53.116;6.878;2022-08-19T08:55:17;24.30;99.90
15083;DHT22;7640;53.116;6.878;2022-08-19T08:57:51;24.50;99.90
15083;DHT22;7640;53.116;6.878;2022-08-19T09:00:27;24.60;99.90
15083;DHT22;7640;53.116;6.878;2022-08-19T09:02:58;24.80;99.90
15083;DHT22;7640;53.116;6.878;2022-08-19T09:05:38;24.80;99.90
15083;DHT22;7640;53.116;6.878;2022-08-19T09:08:18;24.90;99.90
15083;DHT22;7640;53.116;6.878;2022-08-19T09:10:53;25.00;99.90
15083;DHT22;7640;53.116;6.878;2022-08-19T09:13:28;25.10;99.90
15083;DHT22;7640;53.116;6.878;2022-08-19T09:16:07;25.20;99.90
15083;DHT22;7640;53.116;6.878;2022-08-19T09:18:42;25.30;99.90
15083;DHT22;7640;53.116;6.878;2022-08-19T09:21:13;25.40;99.90
15083;DHT22;7640;53.116;6.878;2022-08-19T09:23:43;25.40;99.90
15083;DHT22;7640;53.116;6.878;2022-08-19T09:26:18;25.50;99.90
15083;DHT22;7640;53.116;6.878;2022-08-19T09:28:50;25.60;99.90
15083;DHT22;7640;53.116;6.878;2022-08-19T09:31:30;25.70;99.90
15083;DHT22;7640;53.116;6.878;2022-08-19T09:33:59;25.80;99.90
15083;DHT22;7640;53.116;6.878;2022-08-19T09:36:32;25.90;99.90
15083;DHT22;7640;53.116;6.878;2022-08-19T09:39:03;26.10;99.90
15083;DHT22;7640;53.116;6.878;2022-08-19T09:41:42;26.10;99.90
15083;DHT22;7640;53.116;6.878;2022-08-19T09:44:14;26.20;99.90
15083;DHT22;7640;53.116;6.878;2022-08-19T09:46:46;26.30;99.90
15083;DHT22;7640;53.116;6.878;2022-08-19T09:49:15;26.40;99.90
15083;DHT22;7640;53.116;6.878;2022-08-19T09:51:44;26.50;99.90
15083;DHT22;7640;53.116;6.878;2022-08-19T09:54:17;26.60;99.90
15083;DHT22;7640;53.116;6.878;2022-08-19T09:56:51;26.70;99.90
15083;DHT22;7640;53.116;6.878;2022-08-19T09:59:19;26.80;99.90
15083;DHT22;7640;53.116;6.878;2022-08-19T10:01:49;26.80;99.90
15083;DHT22;7640;53.116;6.878;2022-08-19T10:04:19;26.90;99.90
15083;DHT22;7640;53.116;6.878;2022-08-19T10:06:51;27.00;99.90
15083;DHT22;7640;53.116;6.878;2022-08-19T10:09:21;27.10;99.90
15083;DHT22;7640;53.116;6.878;2022-08-19T10:12:01;27.30;99.90
15083;DHT22;7640;53.116;6.878;2022-08-19T10:14:32;27.40;99.90
15083;DHT22;7640;53.116;6.878;2022-08-19T10:17:03;27.50;99.90
15083;DHT22;7640;53.116;6.878;2022-08-19T10:19:47;27.50;99.90
15083;DHT22;7640;53.116;6.878;2022-08-19T10:22:22;27.60;99.90
15083;DHT22;7640;53.116;6.878;2022-08-19T10:24:52;27.70;99.90
15083;DHT22;7640;53.116;6.878;2022-08-19T10:27:20;27.70;99.90
15083;DHT22;7640;53.116;6.878;2022-08-19T10:29:52;27.70;99.90
15083;DHT22;7640;53.116;6.878;2022-08-19T10:32:22;27.80;99.90
15083;DHT22;7640;53.116;6.878;2022-08-19T10:35:00;27.90;99.90
15083;DHT22;7640;53.116;6.878;2022-08-19T10:37:31;28.00;99.90
15083;DHT22;7640;53.116;6.878;2022-08-19T10:40:01;28.00;99.90
15083;DHT22;7640;53.116;6.878;2022-08-19T10:42:31;28.10;99.90
15083;DHT22;7640;53.116;6.878;2022-08-19T10:44:59;28.10;99.90
15083;DHT22;7640;53.116;6.878;2022-08-19T10:47:32;28.20;99.90
15083;DHT22;7640;53.116;6.878;2022-08-19T10:50:01;28.30;99.90
15083;DHT22;7640;53.116;6.878;2022-08-19T10:52:54;28.40;99.90
15083;DHT22;7640;53.116;6.878;2022-08-19T10:55:23;28.40;99.90
15083;DHT22;7640;53.116;6.878;2022-08-19T10:58:11;28.50;99.90
15083;DHT22;7640;53.116;6.878;2022-08-19T11:00:40;28.60;99.90
15083;DHT22;7640;53.116;6.878;2022-08-19T11:03:11;28.70;99.90
15083;DHT22;7640;53.116;6.878;2022-08-19T11:05:39;28.80;99.90
15083;DHT22;7640;53.116;6.878;2022-08-19T11:08:08;29.00;99.90
15083;DHT22;7640;53.116;6.878;2022-08-19T11:10:50;29.10;99.90
15083;DHT22;7640;53.116;6.878;2022-08-19T11:13:20;29.20;99.90
15083;DHT22;7640;53.116;6.878;2022-08-19T11:15:57;29.40;99.90
15083;DHT22;7640;53.116;6.878;2022-08-19T11:18:35;29.50;99.90
15083;DHT22;7640;53.116;6.878;2022-08-19T11:21:13;29.60;99.90
15083;DHT22;7640;53.116;6.878;2022-08-19T11:23:43;29.60;99.90
15083;DHT22;7640;53.116;6.878;2022-08-19T11:26:12;29.60;99.90
15083;DHT22;7640;53.116;6.878;2022-08-19T11:28:41;29.60;99.90
15083;DHT22;7640;53.116;6.878;2022-08-19T11:31:11;29.40;99.90
15083;DHT22;7640;53.116;6.878;2022-08-19T11:33:41;29.40;99.90
15083;DHT22;7640;53.116;6.878;2022-08-19T11:36:14;29.50;99.90
15083;DHT22;7640;53.116;6.878;2022-08-19T11:38:43;29.60;99.90
15083;DHT22;7640;53.116;6.878;2022-08-19T11:41:11;29.70;99.90
15083;DHT22;7640;53.116;6.878;2022-08-19T11:43:39;29.70;99.90
15083;DHT22;7640;53.116;6.878;2022-08-19T11:46:09;29.90;99.90
15083;DHT22;7640;53.116;6.878;2022-08-19T11:48:40;30.10;99.90
15083;DHT22;7640;53.116;6.878;2022-08-19T11:51:10;30.40;99.90
15083;DHT22;7640;53.116;6.878;2022-08-19T11:53:40;30.60;99.90
15083;DHT22;7640;53.116;6.878;2022-08-19T11:56:09;30.90;99.90
15083;DHT22;7640;53.116;6.878;2022-08-19T11:58:38;31.10;99.90
15083;DHT22;7640;53.116;6.878;2022-08-19T12:01:09;31.10;99.90
15083;DHT22;7640;53.116;6.878;2022-08-19T12:03:38;31.10;99.90
15083;DHT22;7640;53.116;6.878;2022-08-19T12:06:11;31.00;99.90
15083;DHT22;7640;53.116;6.878;2022-08-19T12:08:41;31.00;99.90
15083;DHT22;7640;53.116;6.878;2022-08-19T12:11:11;31.10;99.90
15083;DHT22;7640;53.116;6.878;2022-08-19T12:13:42;31.30;99.70
15083;DHT22;7640;53.116;6.878;2022-08-19T12:16:15;31.50;99.30
15083;DHT22;7640;53.116;6.878;2022-08-19T12:18:44;31.70;98.80
15083;DHT22;7640;53.116;6.878;2022-08-19T12:21:15;31.80;98.30
15083;DHT22;7640;53.116;6.878;2022-08-19T12:23:49;31.70;98.00
15083;DHT22;7640;53.116;6.878;2022-08-19T12:26:21;31.60;98.20
15083;DHT22;7640;53.116;6.878;2022-08-19T12:28:50;31.70;98.20
15083;DHT22;7640;53.116;6.878;2022-08-19T12:31:19;31.80;97.90
15083;DHT22;7640;53.116;6.878;2022-08-19T12:33:47;32.10;98.30
15083;DHT22;7640;53.116;6.878;2022-08-19T12:36:16;32.50;97.40
15083;DHT22;7640;53.116;6.878;2022-08-19T12:38:45;32.90;96.50
15083;DHT22;7640;53.116;6.878;2022-08-19T12:41:15;33.00;95.80
15083;DHT22;7640;53.116;6.878;2022-08-19T12:43:45;32.70;95.40
15083;DHT22;7640;53.116;6.878;2022-08-19T12:46:15;32.60;95.90
15083;DHT22;7640;53.116;6.878;2022-08-19T12:48:44;32.10;96.50
15083;DHT22;7640;53.116;6.878;2022-08-19T12:51:18;31.70;96.90
15083;DHT22;7640;53.116;6.878;2022-08-19T12:53:47;31.30;97.40
15083;DHT22;7640;53.116;6.878;2022-08-19T12:56:16;30.90;97.90
15083;DHT22;7640;53.116;6.878;2022-08-19T12:58:49;30.70;98.20
15083;DHT22;7640;53.116;6.878;2022-08-19T13:01:18;30.50;98.40
15083;DHT22;7640;53.116;6.878;2022-08-19T13:03:49;30.30;98.60
15083;DHT22;7640;53.116;6.878;2022-08-19T13:06:21;30.20;99.00
15083;DHT22;7640;53.116;6.878;2022-08-19T13:08:49;30.20;98.70
15083;DHT22;7640;53.116;6.878;2022-08-19T13:11:22;30.20;98.90
15083;DHT22;7640;53.116;6.878;2022-08-19T13:13:52;30.20;99.20
15083;DHT22;7640;53.116;6.878;2022-08-19T13:16:21;30.10;99.40
15083;DHT22;7640;53.116;6.878;2022-08-19T13:18:50;30.00;99.50
15083;DHT22;7640;53.116;6.878;2022-08-19T13:21:23;30.00;99.80
15083;DHT22;7640;53.116;6.878;2022-08-19T13:23:52;30.00;99.90
15083;DHT22;7640;53.116;6.878;2022-08-19T13:26:21;29.90;99.90
15083;DHT22;7640;53.116;6.878;2022-08-19T13:28:49;30.00;99.70
15083;DHT22;7640;53.116;6.878;2022-08-19T13:31:41;29.90;99.90
15083;DHT22;7640;53.116;6.878;2022-08-19T13:34:31;30.00;99.90
15083;DHT22;7640;53.116;6.878;2022-08-19T13:37:03;30.10;99.90
15083;DHT22;7640;53.116;6.878;2022-08-19T13:39:35;30.30;99.90
15083;DHT22;7640;53.116;6.878;2022-08-19T13:42:03;30.50;99.90
15083;DHT22;7640;53.116;6.878;2022-08-19T13:44:33;30.80;99.70
15083;DHT22;7640;53.116;6.878;2022-08-19T13:47:03;31.00;99.20
15083;DHT22;7640;53.116;6.878;2022-08-19T13:49:34;31.30;99.00
15083;DHT22;7640;53.116;6.878;2022-08-19T13:52:05;31.60;98.60
15083;DHT22;7640;53.116;6.878;2022-08-19T13:54:33;31.80;97.50
15083;DHT22;7640;53.116;6.878;2022-08-19T13:57:01;31.90;96.70
15083;DHT22;7640;53.116;6.878;2022-08-19T13:59:29;31.80;96.60
15083;DHT22;7640;53.116;6.878;2022-08-19T14:01:59;31.90;96.30
15083;DHT22;7640;53.116;6.878;2022-08-19T14:04:28;31.90;96.00
15083;DHT22;7640;53.116;6.878;2022-08-19T14:06:56;31.80;95.90
15083;DHT22;7640;53.116;6.878;2022-08-19T14:09:26;31.60;95.70
15083;DHT22;7640;53.116;6.878;2022-08-19T14:11:54;31.40;95.70
15083;DHT22;7640;53.116;6.878;2022-08-19T14:14:22;31.20;96.10
15083;DHT22;7640;53.116;6.878;2022-08-19T14:16:50;31.10;96.60
15083;DHT22;7640;53.116;6.878;2022-08-19T14:19:19;30.80;97.00
15083;DHT22;7640;53.116;6.878;2022-08-19T14:21:49;30.50;98.00
15083;DHT22;7640;53.116;6.878;2022-08-19T14:24:17;30.10;99.10
15083;DHT22;7640;53.116;6.878;2022-08-19T14:26:47;29.80;99.90
15083;DHT22;7640;53.116;6.878;2022-08-19T14:29:15;29.60;99.90
15083;DHT22;7640;53.116;6.878;2022-08-19T14:31:44;29.30;99.90
15083;DHT22;7640;53.116;6.878;2022-08-19T14:34:12;29.10;99.90
15083;DHT22;7640;53.116;6.878;2022-08-19T14:36:40;29.00;99.90
15083;DHT22;7640;53.116;6.878;2022-08-19T14:39:08;28.80;99.90
15083;DHT22;7640;53.116;6.878;2022-08-19T14:41:40;28.70;99.90
15083;DHT22;7640;53.116;6.878;2022-08-19T14:44:10;28.60;99.90
15083;DHT22;7640;53.116;6.878;2022-08-19T14:46:39;28.60;99.90
15083;DHT22;7640;53.116;6.878;2022-08-19T14:49:15;28.50;99.90
15083;DHT22;7640;53.116;6.878;2022-08-19T14:51:45;28.30;99.90
15083;DHT22;7640;53.116;6.878;2022-08-19T14:54:14;28.20;99.90
15083;DHT22;7640;53.116;6.878;2022-08-19T14:56:42;28.20;99.90
15083;DHT22;7640;53.116;6.878;2022-08-19T14:59:11;28.40;99.90
15083;DHT22;7640;53.116;6.878;2022-08-19T15:01:40;28.60;99.90
15083;DHT22;7640;53.116;6.878;2022-08-19T15:04:08;28.70;99.90
15083;DHT22;7640;53.116;6.878;2022-08-19T15:06:37;28.70;99.90
15083;DHT22;7640;53.116;6.878;2022-08-19T15:09:05;28.70;99.90
15083;DHT22;7640;53.116;6.878;2022-08-19T15:11:34;28.50;99.90
15083;DHT22;7640;53.116;6.878;2022-08-19T15:14:03;28.40;99.90
15083;DHT22;7640;53.116;6.878;2022-08-19T15:16:34;28.30;99.90
15083;DHT22;7640;53.116;6.878;2022-08-19T15:19:04;28.10;99.90
15083;DHT22;7640;53.116;6.878;2022-08-19T15:21:32;28.00;99.90
15083;DHT22;7640;53.116;6.878;2022-08-19T15:24:00;27.90;99.90
15083;DHT22;7640;53.116;6.878;2022-08-19T15:26:29;27.80;99.90
15083;DHT22;7640;53.116;6.878;2022-08-19T15:28:59;27.70;99.90
15083;DHT22;7640;53.116;6.878;2022-08-19T15:31:28;27.60;99.90
15083;DHT22;7640;53.116;6.878;2022-08-19T15:34:00;27.50;99.90
15083;DHT22;7640;53.116;6.878;2022-08-19T15:36:28;27.40;99.90
15083;DHT22;7640;53.116;6.878;2022-08-19T15:38:59;27.30;99.90
15083;DHT22;7640;53.116;6.878;2022-08-19T15:41:29;27.20;99.90
15083;DHT22;7640;53.116;6.878;2022-08-19T15:44:01;27.10;99.90
15083;DHT22;7640;53.116;6.878;2022-08-19T15:46:32;27.00;99.90
15083;DHT22;7640;53.116;6.878;2022-08-19T15:49:04;26.90;99.90
15083;DHT22;7640;53.116;6.878;2022-08-19T15:51:34;26.80;99.90
15083;DHT22;7640;53.116;6.878;2022-08-19T15:54:03;26.80;99.90
15083;DHT22;7640;53.116;6.878;2022-08-19T15:56:32;26.70;99.90
15083;DHT22;7640;53.116;6.878;2022-08-19T15:59:27;26.70;99.90
15083;DHT22;7640;53.116;6.878;2022-08-19T16:02:14;26.70;99.90
15083;DHT22;7640;53.116;6.878;2022-08-19T16:05:06;26.80;99.90
15083;DHT22;7640;53.116;6.878;2022-08-19T16:07:55;26.90;99.90
15083;DHT22;7640;53.116;6.878;2022-08-19T16:10:23;26.90;99.90
15083;DHT22;7640;53.116;6.878;2022-08-19T16:12:54;27.00;99.90
15083;DHT22;7640;53.116;6.878;2022-08-19T16:15:23;27.10;99.90